createdAt,value
2023-04-26T07:30:33.729Z,17.8
2023-04-26T07:36:28.344Z,17.8
2023-04-26T07:42:19.207Z,17.7
2023-04-26T07:48:13.587Z,17.6
2023-04-26T07:54:04.425Z,17.6
2023-04-26T07:59:58.299Z,17.5
2023-04-26T08:06:06.814Z,17.4
2023-04-26T08:11:58.667Z,17.3
2023-04-26T08:17:52.948Z,17.3
2023-04-26T08:23:46.123Z,17.3
2023-04-26T08:29:38.386Z,17.2
2023-04-26T08:35:30.584Z,17.1
2023-04-26T08:41:24.160Z,17.1
2023-04-26T08:52:54.037Z,16.9
2023-04-26T08:58:47.311Z,16.9
2023-04-26T09:04:40.525Z,16.9
2023-04-26T09:10:35.167Z,16.8
2023-04-26T09:16:13.256Z,16.8
2023-04-26T09:22:05.590Z,16.7
2023-04-26T09:27:56.763Z,16.7
2023-04-26T09:33:51.027Z,16.6
2023-04-26T09:39:39.112Z,16.6
2023-04-26T09:45:31.945Z,16.6
2023-04-26T09:51:25.905Z,16.6
2023-04-26T09:57:30.947Z,16.6
2023-04-26T10:03:23.165Z,16.5
2023-04-26T10:09:17.278Z,16.5
2023-04-26T10:14:53.000Z,16.5
2023-04-26T10:20:28.345Z,16.4
2023-04-26T10:26:21.344Z,16.4
2023-04-26T10:32:20.332Z,16.4
2023-04-26T10:38:11.781Z,16.4
2023-04-26T10:44:05.742Z,16.4
2023-04-26T10:49:43.168Z,16.4
2023-04-26T10:55:33.516Z,16.4
2023-04-26T11:01:54.582Z,16.4
2023-04-26T11:07:38.279Z,16.4
2023-04-26T11:12:58.016Z,16.4
2023-04-26T11:18:22.936Z,16.3
2023-04-26T11:23:58.647Z,16.4
2023-04-26T11:29:49.442Z,16.4
2023-04-26T11:35:43.674Z,16.4
2023-04-26T11:41:34.052Z,16.3
2023-04-26T11:47:25.173Z,16.3
2023-04-26T11:53:17.765Z,16.4
2023-04-26T11:59:09.541Z,16.4
2023-04-26T12:05:03.681Z,16.3
2023-04-26T12:10:57.012Z,16.3
2023-04-26T12:16:58.742Z,16.3
2023-04-26T12:22:53.918Z,16.3
2023-04-26T12:28:31.593Z,16.3
2023-04-26T12:34:38.969Z,16.3
2023-04-26T12:40:30.563Z,16.3
2023-04-26T12:46:22.903Z,16.3
2023-04-26T12:52:15.703Z,16.3
2023-04-26T12:57:36.964Z,16.4
2023-04-26T13:03:15.990Z,16.4
2023-04-26T13:08:54.408Z,16.4
2023-04-26T13:14:22.693Z,16.4
2023-04-26T13:20:01.046Z,16.4
2023-04-26T13:25:52.532Z,16.4
2023-04-26T13:31:46.429Z,16.4
2023-04-26T13:37:43.152Z,16.4
2023-04-26T13:43:36.098Z,16.4
2023-04-26T13:49:27.724Z,16.4
2023-04-26T13:55:20.150Z,16.4
2023-04-26T14:01:11.759Z,16.4
2023-04-26T14:07:05.412Z,16.4
2023-04-26T14:13:13.254Z,16.4
2023-04-26T14:19:05.780Z,16.4
2023-04-26T14:24:57.454Z,16.4
2023-04-26T14:30:49.723Z,16.4
2023-04-26T14:36:43.209Z,16.3
2023-04-26T14:42:33.864Z,16.3
2023-04-26T14:48:45.137Z,16.6
2023-04-26T14:54:38.877Z,19.5
2023-04-26T15:00:33.624Z,34.3
2023-04-26T15:06:14.862Z,40.8
2023-04-26T15:12:18.539Z,41.3
2023-04-26T15:17:54.733Z,40.8
2023-04-26T15:23:47.416Z,42.9
2023-04-26T15:29:08.358Z,41.9
2023-04-26T15:35:00.657Z,40.6
2023-04-26T15:40:54.738Z,41.4
2023-04-26T15:46:46.281Z,45.2
2023-04-26T15:52:22.004Z,47.9
2023-04-26T15:58:16.331Z,48.2
2023-04-26T16:04:11.178Z,47.6
2023-04-26T16:10:31.557Z,45.4
2023-04-26T16:16:24.273Z,42.8
2023-04-26T16:22:16.759Z,44.6
2023-04-26T16:28:09.530Z,42.1
2023-04-26T16:34:03.550Z,43.7
2023-04-26T16:39:55.219Z,40.3
2023-04-26T16:45:49.308Z,43.8
2023-04-26T16:51:42.174Z,41.1
2023-04-26T16:57:18.451Z,43.5
2023-04-26T17:02:39.619Z,39.6
2023-04-26T17:08:21.355Z,42.5
2023-04-26T17:14:13.601Z,39.5
2023-04-26T17:20:05.032Z,40.6
2023-04-26T17:25:57.162Z,46.7
2023-04-26T17:31:48.994Z,44.8
2023-04-26T17:37:40.566Z,46.6
2023-04-26T17:43:32.595Z,48.4
2023-04-26T17:49:23.676Z,49.1
2023-04-26T17:55:18.481Z,48.3
2023-04-26T18:00:55.940Z,46.2
2023-04-26T18:06:51.041Z,47.2
2023-04-26T18:12:44.255Z,45.2
2023-04-26T18:18:37.480Z,43.8
2023-04-26T18:24:29.206Z,44.6
2023-04-26T18:30:20.973Z,42.4
2023-04-26T18:36:14.997Z,44.6
2023-04-26T18:42:06.741Z,46
2023-04-26T18:47:58.593Z,46.1
2023-04-26T18:53:52.169Z,43.7
2023-04-26T18:59:47.530Z,34.8
2023-04-26T19:05:27.227Z,32.7
2023-04-26T19:11:33.913Z,31.5
2023-04-26T19:17:28.318Z,30.1
2023-04-26T19:23:21.360Z,28.9
2023-04-26T19:29:15.294Z,27.9
2023-04-26T19:35:07.714Z,27.3
2023-04-26T19:40:47.184Z,26.6
2023-04-26T19:46:41.976Z,26.2
2023-04-26T19:52:20.290Z,25.8
2023-04-26T19:57:58.522Z,25.5
2023-04-26T20:03:54.067Z,24.9
2023-04-26T20:09:47.366Z,24.3
2023-04-26T20:15:40.069Z,23.9
2023-04-26T20:21:34.934Z,23.6
2023-04-26T20:27:12.606Z,23.4
2023-04-26T20:33:05.859Z,23.4
2023-04-26T20:39:00.164Z,23.4
2023-04-26T20:44:52.509Z,23.3
2023-04-26T20:50:44.941Z,23.2
2023-04-26T20:56:37.225Z,23.1
2023-04-26T21:02:30.521Z,22.9
2023-04-26T21:08:23.506Z,22.9
2023-04-26T21:14:15.545Z,22.7
2023-04-26T21:20:07.371Z,22.6
2023-04-26T21:25:57.701Z,22.5
2023-04-26T21:31:49.956Z,22.4
2023-04-26T21:37:26.501Z,22.3
2023-04-26T21:43:22.339Z,22.3
2023-04-26T21:49:14.869Z,22.2
2023-04-26T21:55:07.035Z,22.1
2023-04-26T22:00:57.634Z,22
2023-04-26T22:06:51.290Z,21.9
2023-04-26T22:12:42.778Z,21.9
2023-04-26T22:18:33.373Z,21.8
2023-04-26T22:24:25.867Z,21.7
2023-04-26T22:30:29.132Z,21.6
2023-04-26T22:36:22.771Z,21.6
2023-04-26T22:42:20.155Z,21.5
2023-04-26T22:48:11.744Z,21.4
2023-04-26T22:54:11.345Z,21.3
2023-04-26T22:59:47.862Z,21.3
2023-04-26T23:05:40.382Z,21.3
2023-04-26T23:11:30.886Z,21.2
2023-04-26T23:23:00.768Z,21.1
2023-04-26T23:28:52.854Z,21
2023-04-26T23:34:45.325Z,20.9
2023-04-26T23:40:41.811Z,20.9
2023-04-26T23:46:17.035Z,20.8
2023-04-26T23:52:09.160Z,20.8
2023-04-26T23:57:59.960Z,20.7
